Weather at Letališče Celje

Public forecast

Using degrees Celsius for public forecast. Weather courtesy of forecast.io.

Closest aviation weather report (METAR) to Letališče Celje

Report is more than 6 hours old.

Closest report is Maribor Airport, 23.8 nm (44.1 km) NE. Retrieved 2022/09/17 19:00 UTC (19 days ago):

LJMB 171900Z 22002KT CAVOK 10/09 Q1010

Closest aviation forecast (TAF) to Letališče Celje

Forecast is more than 12 hours old.

Closest forecast is Maribor Airport, 23.8 nm (44.1 km) NE. Retrieved 2022/09/17 18:08 UTC (19 days ago):

TAF LJMB 171700Z 1718/1818 VRB02KT 9999 FEW010 PROB30 1802/1807 0500 FG